Updated07/05/2021 7:13pm 
 

Nearby Airport METAR Reports

 

KVSF - Springfield, Vermont, USA
Distance from station: WSW 8mi, 12km
Updated: 05/07/2021 6:54pm
Overcast
Overcast
 Wind from SSE
Wind: SSE 10 mph , 17 km/h, Gust: 17 mph , 28 km/h
Temperature: 57°F , 14°C
Dew Point: 34°F , 1°C
Humidity: 41%
Barometer: 29.88 inHg , 1011.9 hPa
Clouds: Overcast
Visibility: 10 miles , 16 km
Cloud details: Overcast 8000 ft
2021/05/07 22:54 KVSF 072254Z AUTO 16009G15KT 10SM OVC080 14/01 A2988 RMK AO2 SLP122 T01440011
KLEB - Lebanon, New Hampshire, USA
Distance from station: N 18mi, 29km
Updated: 05/07/2021 6:53pm
Overcast
Overcast
 Wind from SSE
Wind: SSE 9 mph , 15 km/h
Temperature: 61°F , 16°C
Dew Point: 34°F , 1°C
Humidity: 36%
Barometer: 29.87 inHg , 1011.5 hPa
Clouds: Overcast
Visibility: 10 miles , 16 km
Cloud details: Overcast 8000 ft
2021/05/07 22:53 KLEB 072253Z 15008KT 10SM OVC080 16/01 A2987 RMK AO2 SLP115 T01560011
KRUT - Rutland State, Vermont, USA
Distance from station: WNW 31mi, 50km
Updated: 05/07/2021 6:56pm
Overcast
Overcast
 Wind from SE
Wind: SE 9 mph , 15 km/h
Temperature: 57°F , 14°C
Dew Point: 30°F , -1°C
Humidity: 36%
Barometer: 29.86 inHg , 1011.2 hPa
Clouds: Overcast
Visibility: 10 miles , 16 km
Cloud details: Overcast 8000 ft
2021/05/07 22:56 KRUT 072256Z AUTO 14008KT 10SM OVC080 14/M01 A2986 RMK AO2 SLP108 T01441011 $
 
KEEN - Keene/Dillant, New Hampshire, USA
Distance from station: S 34mi, 55km
Updated: 05/07/2021 6:56pm
Overcast
Overcast
 Wind from SSE
Wind: SSE 12 mph , 19 km/h, Gust: 16 mph , 26 km/h
Temperature: 55°F , 13°C
Dew Point: 37°F , 3°C
Humidity: 51%
Barometer: 29.90 inHg , 1012.5 hPa
Clouds: Overcast
Visibility: 10 miles , 16 km
Cloud details: Overcast 9000 ft
2021/05/07 22:56 KEEN 072256Z AUTO 15010G14KT 10SM OVC090 13/03 A2990 RMK AO2 SLP132 T01330033 $
K1P1 - Plymouth, New Hampshire, USA
Distance from station: NE 42mi, 67km
Updated: 05/07/2021 6:55pm
Partly cloudy
Partly cloudy
 Wind from ESE
Wind: ESE 5 mph , 7 km/h
Temperature: 57°F , 14°C
Dew Point: 30°F , -1°C
Humidity: 36%
Barometer: 29.89 inHg , 1012.2 hPa
Clouds: Partly cloudy
Visibility: 10 miles , 16 km
Cloud details: Partly cloudy 8000 ft
2021/05/07 22:55 K1P1 072255Z AUTO 12004KT 10SM SCT080 14/M01 A2989 RMK AO2 T01431006
KAFN - Jaffrey, New Hampshire, USA
Distance from station: SSE 44mi, 70km
Updated: 05/07/2021 6:52pm
Clear
Clear
 Wind from varies
Wind: varies 7 mph , 11 km/h
Temperature: 54°F , 12°C
Dew Point: 37°F , 3°C
Humidity: 54%
Barometer: 29.92 inHg , 1013.2 hPa
Clouds: Clear
Visibility: 10 miles , 16 km
2021/05/07 22:52 KAFN 072252Z AUTO VRB06KT 10SM CLR 12/03 A2992 RMK AO2 SLP142 T01170028
 
KCON - Concord, New Hampshire, USA
Distance from station: ESE 45mi, 73km
Updated: 05/07/2021 6:51pm
Clear
Clear
 Wind from SE
Wind: SE 8 mph , 13 km/h
Temperature: 55°F , 13°C
Dew Point: 28°F , -2°C
Humidity: 36%
Barometer: 29.93 inHg , 1013.5 hPa
Clouds: Clear
Visibility: 10 miles , 16 km
2021/05/07 22:51 KCON 072251Z AUTO 13007KT 10SM CLR 13/M02 A2993 RMK AO2 SLP138 T01281017
KLCI - Laconia Muni, New Hampshire, USA
Distance from station: ENE 49mi, 80km
Updated: 05/07/2021 6:56pm
Clear
Clear
 Wind from SSE
Wind: SSE 9 mph , 15 km/h
Temperature: 55°F , 13°C
Dew Point: 30°F , -1°C
Humidity: 38%
Barometer: 29.91 inHg , 1012.9 hPa
Clouds: Clear
Visibility: 10 miles , 16 km
2021/05/07 22:56 KLCI 072256Z AUTO 15008KT 10SM CLR 13/M01 A2991 RMK AO2 SLP132 T01331006
KDDH - Bennington, Vermont, USA
Distance from station: SW 55mi, 89km
Updated: 05/07/2021 6:54pm
Few Clouds
Few Clouds
 Wind from SE
Wind: SE 12 mph , 19 km/h
Temperature: 57°F , 14°C
Dew Point: 34°F , 1°C
Humidity: 41%
Barometer: 29.85 inHg , 1010.8 hPa
Clouds: Few Clouds
Visibility: 10 miles , 16 km
Cloud details: Few Clouds 9500 ft
2021/05/07 22:54 KDDH 072254Z AUTO 14010KT 10SM FEW095 14/01 A2985 RMK AO2 SLP110 T01440006
 
K6B0 - Middlebury, Vermont, USA
Distance from station: NW 56mi, 90km
Updated: 05/07/2021 6:55pm
Overcast
Overcast
 Wind from NNW
Wind: NNW 5 mph , 7 km/h
Temperature: 55°F , 13°C
Dew Point: 32°F , 0°C
Humidity: 41%
Barometer: 29.86 inHg , 1011.2 hPa
Clouds: Overcast
Visibility: 10 miles , 16 km
Cloud details: Overcast 10000 ft
2021/05/07 22:55 K6B0 072255Z AUTO 34004KT 10SM OVC100 13/00 A2986 RMK AO2 T01300002
KMHT - Manchester, New Hampshire, USA
Distance from station: ESE 56mi, 90km
Updated: 05/07/2021 6:53pm
Mostly cloudy
Mostly cloudy
 Wind from S
Wind: S 12 mph , 19 km/h
Temperature: 57°F , 14°C
Dew Point: 27°F , -3°C
Humidity: 31%
Barometer: 29.92 inHg , 1013.2 hPa
Clouds: Mostly cloudy
Visibility: 10 miles , 16 km
Cloud details: Few Clouds 9000 ft
Mostly cloudy 25000 ft
2021/05/07 22:53 KMHT 072253Z 17010KT 10SM FEW090 BKN250 14/M03 A2992 RMK AO2 SLP147 T01391028
KORE - Orange, Massachusetts, USA
Distance from station: S 56mi, 90km
Updated: 05/07/2021 6:52pm
Overcast
Overcast
 Wind from ESE
Wind: ESE 9 mph , 15 km/h
Temperature: 55°F , 13°C
Dew Point: 37°F , 3°C
Humidity: 51%
Barometer: 29.91 inHg , 1012.9 hPa
Clouds: Overcast
Visibility: 10 miles , 16 km
Cloud details: Overcast 9500 ft
2021/05/07 22:52 KORE 072252Z AUTO 11008KT 10SM OVC095 13/03 A2991 RMK AO2 SLP131 T01330033
 
KMPV - Montpelier/Barre, Vermont, USA
Distance from station: N 58mi, 93km
Updated: 05/07/2021 6:51pm
Overcast
Overcast
 Wind from SE
Wind: SE 3 mph , 6 km/h
Temperature: 57°F , 14°C
Dew Point: 28°F , -2°C
Humidity: 33%
Barometer: 29.90 inHg , 1012.5 hPa
Clouds: Overcast
Visibility: 10 miles , 16 km
Cloud details: Overcast 9000 ft
2021/05/07 22:51 KMPV 072251Z AUTO 14003KT 10SM OVC090 14/M02 A2990 RMK AO2 SLP133 T01391017
KASH - Nashua/Boire Fld, New Hampshire, USA
Distance from station: SE 59mi, 95km
Updated: 05/07/2021 6:56pm
Partly cloudy
Partly cloudy
 Wind from ESE
Wind: ESE 8 mph , 13 km/h
Temperature: 55°F , 13°C
Dew Point: 28°F , -2°C
Humidity: 36%
Barometer: 29.95 inHg , 1014.2 hPa
Clouds: Partly cloudy
Visibility: 10 miles , 16 km
Cloud details: Partly cloudy 6500 ft
2021/05/07 22:56 KASH 072256Z 12007KT 10SM SCT065 13/M02 A2995 RMK AO2 SLP146 T01281022
KAQW - North Adams, Massachusetts, USA
Distance from station: SW 62mi, 99km
Updated: 05/07/2021 6:52pm
Partly cloudy
Partly cloudy
 Wind from SE
Wind: SE 10 mph , 17 km/h
Temperature: 57°F , 14°C
Dew Point: 36°F , 2°C
Humidity: 44%
Barometer: 29.86 inHg , 1011.2 hPa
Clouds: Partly cloudy
Visibility: 10 miles , 16 km
Cloud details: Partly cloudy 9500 ft
2021/05/07 22:52 KAQW 072252Z AUTO 13009KT 10SM SCT095 14/02 A2986 RMK AO2 SLP115 T01440017
 
KGFL - Glens Falls, New York, USA
Distance from station: W 63mi, 101km
Updated: 05/07/2021 6:53pm
Overcast
Overcast
 Wind from SE
Wind: SE 3 mph , 6 km/h
Temperature: 61°F , 16°C
Dew Point: 32°F , 0°C
Humidity: 34%
Barometer: 29.84 inHg , 1010.5 hPa
Clouds: Overcast
Visibility: 10 miles , 16 km
Cloud details: Overcast 11000 ft
2021/05/07 22:53 KGFL 072253Z AUTO 14003KT 10SM OVC110 16/00 A2984 RMK AO2 SLP107 T01560000
KFIT - Fitchburg, Massachusetts, USA
Distance from station: SSE 65mi, 105km
Updated: 05/07/2021 6:52pm
Overcast
Overcast
 Wind from E
Wind: E 10 mph , 17 km/h
Temperature: 54°F , 12°C
Dew Point: 30°F , -1°C
Humidity: 41%
Barometer: 29.94 inHg , 1013.9 hPa
Clouds: Overcast
Visibility: 10 miles , 16 km
Cloud details: Few Clouds 6000 ft
Overcast 7500 ft
2021/05/07 22:52 KFIT 072252Z AUTO 10009KT 10SM FEW060 OVC075 12/M01 A2994 RMK AO2 SLP140 T01171006
KDAW - Rochester, New Hampshire, USA
Distance from station: E 73mi, 118km
Updated: 05/07/2021 6:51pm
Clear
Clear
 Wind from SSE
Wind: SSE 8 mph , 13 km/h
Temperature: 52°F , 11°C
Dew Point: 28°F , -2°C
Humidity: 41%
Barometer: 29.95 inHg , 1014.2 hPa
Clouds: Clear
Visibility: 10 miles , 16 km
2021/05/07 22:51 KDAW 072251Z AUTO 16007KT 10SM CLR 11/M02 A2995 RMK AO2 SLP140 T01111017
 
K1V4 - St. Johnsbury, Vermont, USA
Distance from station: NNE 74mi, 119km
Updated: 05/07/2021 6:54pm

 
Temperature: 61°F , 16°C
Dew Point: 27°F , -3°C
Humidity: 27%
Barometer: 29.86 inHg , 1011.2 hPa
2021/05/07 22:54 K1V4 072254Z AUTO 16/M03 A2986 RMK AO1 SLP113 T01561033
KLWM - Lawrence, Massachusetts, USA
Distance from station: SE 77mi, 124km
Updated: 05/07/2021 6:54pm
Clear
Clear
 Wind from ESE
Wind: ESE 6 mph , 9 km/h
Temperature: 54°F , 12°C
Dew Point: 27°F , -3°C
Humidity: 35%
Barometer: 29.97 inHg , 1014.9 hPa
Clouds: Clear
Visibility: 10 miles , 16 km
2021/05/07 22:54 KLWM 072254Z 12005KT 10SM CLR 12/M03 A2997 RMK AO2 SLP148 T01221028



Flag Counter
free counter page views since 4/29/2009